sensor_id;sensor_type;location;lat;lon;timestamp;P1;durP1;ratioP1;P2;durP2;ratioP2
69822;SDS011;57119;52.516;13.508;2022-07-23T00:00:26;9.87;;;4.53;;
69822;SDS011;57119;52.516;13.508;2022-07-23T00:02:52;10.13;;;4.80;;
69822;SDS011;57119;52.516;13.508;2022-07-23T00:05:17;10.97;;;5.43;;
69822;SDS011;57119;52.516;13.508;2022-07-23T00:07:42;9.80;;;5.27;;
69822;SDS011;57119;52.516;13.508;2022-07-23T00:10:08;10.33;;;5.27;;
69822;SDS011;57119;52.516;13.508;2022-07-23T00:12:34;9.90;;;5.35;;
69822;SDS011;57119;52.516;13.508;2022-07-23T00:15:00;12.20;;;4.90;;
69822;SDS011;57119;52.516;13.508;2022-07-23T00:17:25;8.15;;;4.68;;
69822;SDS011;57119;52.516;13.508;2022-07-23T00:19:51;9.17;;;5.00;;
69822;SDS011;57119;52.516;13.508;2022-07-23T00:22:18;10.18;;;4.72;;
69822;SDS011;57119;52.516;13.508;2022-07-23T00:24:43;9.87;;;5.30;;
69822;SDS011;57119;52.516;13.508;2022-07-23T00:27:09;9.87;;;5.03;;
69822;SDS011;57119;52.516;13.508;2022-07-23T00:29:34;12.85;;;5.10;;
69822;SDS011;57119;52.516;13.508;2022-07-23T00:31:59;10.03;;;5.20;;
69822;SDS011;57119;52.516;13.508;2022-07-23T00:34:25;10.80;;;5.10;;
69822;SDS011;57119;52.516;13.508;2022-07-23T00:36:50;8.93;;;4.40;;
69822;SDS011;57119;52.516;13.508;2022-07-23T00:39:18;9.57;;;4.60;;
69822;SDS011;57119;52.516;13.508;2022-07-23T00:41:43;11.50;;;4.57;;
69822;SDS011;57119;52.516;13.508;2022-07-23T00:44:15;9.53;;;4.47;;
69822;SDS011;57119;52.516;13.508;2022-07-23T00:46:46;9.43;;;5.32;;
69822;SDS011;57119;52.516;13.508;2022-07-23T00:49:14;10.48;;;4.97;;
69822;SDS011;57119;52.516;13.508;2022-07-23T00:51:39;9.57;;;4.77;;
69822;SDS011;57119;52.516;13.508;2022-07-23T00:54:04;10.07;;;4.40;;
69822;SDS011;57119;52.516;13.508;2022-07-23T00:56:30;8.57;;;4.23;;
69822;SDS011;57119;52.516;13.508;2022-07-23T00:58:55;9.83;;;4.20;;
69822;SDS011;57119;52.516;13.508;2022-07-23T01:01:22;10.32;;;4.65;;
69822;SDS011;57119;52.516;13.508;2022-07-23T01:03:47;7.43;;;3.87;;
69822;SDS011;57119;52.516;13.508;2022-07-23T01:06:12;8.10;;;4.30;;
69822;SDS011;57119;52.516;13.508;2022-07-23T01:08:38;9.07;;;4.35;;
69822;SDS011;57119;52.516;13.508;2022-07-23T01:11:04;7.80;;;4.40;;
69822;SDS011;57119;52.516;13.508;2022-07-23T01:13:30;8.50;;;4.40;;
69822;SDS011;57119;52.516;13.508;2022-07-23T01:15:55;8.47;;;4.47;;
69822;SDS011;57119;52.516;13.508;2022-07-23T01:18:20;12.53;;;4.70;;
69822;SDS011;57119;52.516;13.508;2022-07-23T01:20:45;9.77;;;4.30;;
69822;SDS011;57119;52.516;13.508;2022-07-23T01:23:11;8.63;;;4.60;;
69822;SDS011;57119;52.516;13.508;2022-07-23T01:25:36;10.25;;;4.88;;
69822;SDS011;57119;52.516;13.508;2022-07-23T01:28:02;10.17;;;4.77;;
69822;SDS011;57119;52.516;13.508;2022-07-23T01:30:27;9.03;;;4.57;;
69822;SDS011;57119;52.516;13.508;2022-07-23T01:32:53;8.80;;;4.68;;
69822;SDS011;57119;52.516;13.508;2022-07-23T01:35:18;8.10;;;4.43;;
69822;SDS011;57119;52.516;13.508;2022-07-23T01:37:43;9.03;;;4.40;;
69822;SDS011;57119;52.516;13.508;2022-07-23T01:40:09;8.70;;;4.80;;
69822;SDS011;57119;52.516;13.508;2022-07-23T01:42:35;11.85;;;4.35;;
69822;SDS011;57119;52.516;13.508;2022-07-23T01:45:01;10.33;;;4.30;;
69822;SDS011;57119;52.516;13.508;2022-07-23T01:47:26;9.43;;;4.93;;
69822;SDS011;57119;52.516;13.508;2022-07-23T01:49:52;9.53;;;4.77;;
69822;SDS011;57119;52.516;13.508;2022-07-23T01:52:17;9.53;;;4.53;;
69822;SDS011;57119;52.516;13.508;2022-07-23T01:54:42;8.77;;;4.73;;
69822;SDS011;57119;52.516;13.508;2022-07-23T01:57:08;9.93;;;5.07;;
69822;SDS011;57119;52.516;13.508;2022-07-23T01:59:34;11.10;;;5.30;;
69822;SDS011;57119;52.516;13.508;2022-07-23T02:01:59;8.98;;;4.57;;
69822;SDS011;57119;52.516;13.508;2022-07-23T02:04:25;10.80;;;4.93;;
69822;SDS011;57119;52.516;13.508;2022-07-23T02:06:51;9.17;;;5.00;;
69822;SDS011;57119;52.516;13.508;2022-07-23T02:09:17;9.57;;;5.38;;
69822;SDS011;57119;52.516;13.508;2022-07-23T02:11:42;9.60;;;5.00;;
69822;SDS011;57119;52.516;13.508;2022-07-23T02:14:08;9.52;;;4.55;;
69822;SDS011;57119;52.516;13.508;2022-07-23T02:16:33;10.18;;;4.80;;
69822;SDS011;57119;52.516;13.508;2022-07-23T02:18:59;9.77;;;5.50;;
69822;SDS011;57119;52.516;13.508;2022-07-23T02:21:24;9.40;;;4.57;;
69822;SDS011;57119;52.516;13.508;2022-07-23T02:23:50;11.17;;;5.40;;
69822;SDS011;57119;52.516;13.508;2022-07-23T02:26:15;9.73;;;4.73;;
69822;SDS011;57119;52.516;13.508;2022-07-23T02:28:41;11.63;;;4.93;;
69822;SDS011;57119;52.516;13.508;2022-07-23T02:31:06;11.67;;;5.20;;
69822;SDS011;57119;52.516;13.508;2022-07-23T02:33:32;9.33;;;4.50;;
69822;SDS011;57119;52.516;13.508;2022-07-23T02:35:58;10.45;;;4.63;;
69822;SDS011;57119;52.516;13.508;2022-07-23T02:38:24;8.73;;;4.43;;
69822;SDS011;57119;52.516;13.508;2022-07-23T02:40:49;9.83;;;4.77;;
69822;SDS011;57119;52.516;13.508;2022-07-23T02:43:14;13.30;;;5.40;;
69822;SDS011;57119;52.516;13.508;2022-07-23T02:45:40;9.53;;;4.80;;
69822;SDS011;57119;52.516;13.508;2022-07-23T02:48:08;10.85;;;4.82;;
69822;SDS011;57119;52.516;13.508;2022-07-23T02:50:34;11.60;;;5.07;;
69822;SDS011;57119;52.516;13.508;2022-07-23T02:53:00;9.30;;;4.95;;
69822;SDS011;57119;52.516;13.508;2022-07-23T02:55:25;10.63;;;5.00;;
69822;SDS011;57119;52.516;13.508;2022-07-23T02:57:53;9.80;;;5.20;;
69822;SDS011;57119;52.516;13.508;2022-07-23T03:00:19;9.77;;;4.80;;
69822;SDS011;57119;52.516;13.508;2022-07-23T03:02:44;10.82;;;4.88;;
69822;SDS011;57119;52.516;13.508;2022-07-23T03:05:10;8.50;;;4.60;;
69822;SDS011;57119;52.516;13.508;2022-07-23T03:07:35;10.73;;;4.20;;
69822;SDS011;57119;52.516;13.508;2022-07-23T03:10:01;9.93;;;4.90;;
69822;SDS011;57119;52.516;13.508;2022-07-23T03:12:26;10.40;;;4.85;;
69822;SDS011;57119;52.516;13.508;2022-07-23T03:14:52;9.20;;;4.63;;
69822;SDS011;57119;52.516;13.508;2022-07-23T03:17:17;8.90;;;4.37;;
69822;SDS011;57119;52.516;13.508;2022-07-23T03:19:42;12.60;;;5.10;;
69822;SDS011;57119;52.516;13.508;2022-07-23T03:22:07;10.43;;;5.23;;
69822;SDS011;57119;52.516;13.508;2022-07-23T03:24:33;11.40;;;5.13;;
69822;SDS011;57119;52.516;13.508;2022-07-23T03:27:17;10.80;;;5.03;;
69822;SDS011;57119;52.516;13.508;2022-07-23T03:29:53;13.15;;;4.82;;
69822;SDS011;57119;52.516;13.508;2022-07-23T03:32:20;8.60;;;4.65;;
69822;SDS011;57119;52.516;13.508;2022-07-23T03:34:45;9.50;;;4.87;;
69822;SDS011;57119;52.516;13.508;2022-07-23T03:37:11;10.00;;;4.87;;
69822;SDS011;57119;52.516;13.508;2022-07-23T03:39:36;11.43;;;5.40;;
69822;SDS011;57119;52.516;13.508;2022-07-23T03:42:02;10.20;;;5.20;;
69822;SDS011;57119;52.516;13.508;2022-07-23T03:44:27;10.23;;;4.75;;
69822;SDS011;57119;52.516;13.508;2022-07-23T03:46:52;10.23;;;5.20;;
69822;SDS011;57119;52.516;13.508;2022-07-23T03:49:18;11.60;;;5.10;;
69822;SDS011;57119;52.516;13.508;2022-07-23T03:51:43;10.53;;;4.10;;
69822;SDS011;57119;52.516;13.508;2022-07-23T03:54:08;8.63;;;4.73;;
69822;SDS011;57119;52.516;13.508;2022-07-23T03:56:34;9.27;;;5.00;;
69822;SDS011;57119;52.516;13.508;2022-07-23T03:58:59;10.50;;;4.32;;
69822;SDS011;57119;52.516;13.508;2022-07-23T04:01:25;11.50;;;5.57;;
69822;SDS011;57119;52.516;13.508;2022-07-23T04:03:51;9.88;;;4.45;;
69822;SDS011;57119;52.516;13.508;2022-07-23T04:06:16;9.23;;;5.00;;
69822;SDS011;57119;52.516;13.508;2022-07-23T04:08:42;8.17;;;4.10;;
69822;SDS011;57119;52.516;13.508;2022-07-23T04:11:07;8.70;;;3.73;;
69822;SDS011;57119;52.516;13.508;2022-07-23T04:13:32;12.13;;;4.03;;
69822;SDS011;57119;52.516;13.508;2022-07-23T04:15:58;9.60;;;3.97;;
69822;SDS011;57119;52.516;13.508;2022-07-23T04:18:23;9.52;;;3.70;;
69822;SDS011;57119;52.516;13.508;2022-07-23T04:20:50;11.40;;;3.33;;
69822;SDS011;57119;52.516;13.508;2022-07-23T04:23:16;9.68;;;3.70;;
69822;SDS011;57119;52.516;13.508;2022-07-23T04:25:42;9.43;;;3.67;;
69822;SDS011;57119;52.516;13.508;2022-07-23T04:28:07;9.93;;;4.20;;
69822;SDS011;57119;52.516;13.508;2022-07-23T04:30:32;12.77;;;4.13;;
69822;SDS011;57119;52.516;13.508;2022-07-23T04:32:58;8.37;;;3.10;;
69822;SDS011;57119;52.516;13.508;2022-07-23T04:35:23;8.27;;;2.95;;
69822;SDS011;57119;52.516;13.508;2022-07-23T04:37:50;10.75;;;3.30;;
69822;SDS011;57119;52.516;13.508;2022-07-23T04:40:15;10.80;;;3.43;;
69822;SDS011;57119;52.516;13.508;2022-07-23T04:42:41;8.90;;;3.63;;
69822;SDS011;57119;52.516;13.508;2022-07-23T04:45:07;9.50;;;3.47;;
69822;SDS011;57119;52.516;13.508;2022-07-23T04:47:33;9.15;;;3.20;;
69822;SDS011;57119;52.516;13.508;2022-07-23T04:49:58;10.13;;;3.43;;
69822;SDS011;57119;52.516;13.508;2022-07-23T04:52:24;10.47;;;3.10;;
69822;SDS011;57119;52.516;13.508;2022-07-23T04:54:49;10.32;;;3.90;;
69822;SDS011;57119;52.516;13.508;2022-07-23T04:57:15;8.17;;;3.20;;
69822;SDS011;57119;52.516;13.508;2022-07-23T04:59:41;8.70;;;3.22;;
69822;SDS011;57119;52.516;13.508;2022-07-23T05:02:06;8.03;;;3.63;;
69822;SDS011;57119;52.516;13.508;2022-07-23T05:04:32;8.63;;;3.67;;
69822;SDS011;57119;52.516;13.508;2022-07-23T05:06:57;7.43;;;3.47;;
69822;SDS011;57119;52.516;13.508;2022-07-23T05:09:23;8.63;;;3.47;;
69822;SDS011;57119;52.516;13.508;2022-07-23T05:11:49;8.95;;;3.85;;
69822;SDS011;57119;52.516;13.508;2022-07-23T05:14:14;10.77;;;3.67;;
69822;SDS011;57119;52.516;13.508;2022-07-23T05:16:39;7.30;;;3.43;;
69822;SDS011;57119;52.516;13.508;2022-07-23T05:19:05;9.90;;;2.93;;
69822;SDS011;57119;52.516;13.508;2022-07-23T05:21:30;10.03;;;4.20;;
69822;SDS011;57119;52.516;13.508;2022-07-23T05:23:56;7.00;;;3.43;;
69822;SDS011;57119;52.516;13.508;2022-07-23T05:26:21;8.50;;;3.33;;
69822;SDS011;57119;52.516;13.508;2022-07-23T05:28:47;10.38;;;3.92;;
69822;SDS011;57119;52.516;13.508;2022-07-23T05:31:12;8.20;;;3.40;;
69822;SDS011;57119;52.516;13.508;2022-07-23T05:33:37;8.87;;;3.30;;
69822;SDS011;57119;52.516;13.508;2022-07-23T05:36:03;8.80;;;3.10;;
69822;SDS011;57119;52.516;13.508;2022-07-23T05:38:29;6.53;;;2.63;;
69822;SDS011;57119;52.516;13.508;2022-07-23T05:40:55;6.47;;;2.73;;
69822;SDS011;57119;52.516;13.508;2022-07-23T05:43:21;8.10;;;3.23;;
69822;SDS011;57119;52.516;13.508;2022-07-23T05:45:46;9.03;;;3.30;;
69822;SDS011;57119;52.516;13.508;2022-07-23T05:48:11;8.32;;;2.80;;
69822;SDS011;57119;52.516;13.508;2022-07-23T05:50:37;8.30;;;3.07;;
69822;SDS011;57119;52.516;13.508;2022-07-23T05:53:03;6.53;;;2.65;;
69822;SDS011;57119;52.516;13.508;2022-07-23T05:55:28;6.57;;;2.73;;
69822;SDS011;57119;52.516;13.508;2022-07-23T05:57:56;6.95;;;3.00;;
69822;SDS011;57119;52.516;13.508;2022-07-23T06:00:22;7.47;;;3.30;;
69822;SDS011;57119;52.516;13.508;2022-07-23T06:02:47;7.38;;;3.10;;
69822;SDS011;57119;52.516;13.508;2022-07-23T06:05:13;7.83;;;3.73;;
69822;SDS011;57119;52.516;13.508;2022-07-23T06:07:38;11.53;;;3.43;;
69822;SDS011;57119;52.516;13.508;2022-07-23T06:10:03;9.07;;;3.40;;
69822;SDS011;57119;52.516;13.508;2022-07-23T06:12:29;9.38;;;3.50;;
69822;SDS011;57119;52.516;13.508;2022-07-23T06:14:55;8.90;;;4.03;;
69822;SDS011;57119;52.516;13.508;2022-07-23T06:17:20;11.37;;;3.30;;
69822;SDS011;57119;52.516;13.508;2022-07-23T06:19:45;10.07;;;3.75;;
69822;SDS011;57119;52.516;13.508;2022-07-23T06:22:11;10.47;;;3.23;;
69822;SDS011;57119;52.516;13.508;2022-07-23T06:24:36;7.30;;;3.70;;
69822;SDS011;57119;52.516;13.508;2022-07-23T06:27:02;7.93;;;3.70;;
69822;SDS011;57119;52.516;13.508;2022-07-23T06:29:28;10.20;;;3.73;;
69822;SDS011;57119;52.516;13.508;2022-07-23T06:31:53;9.17;;;3.73;;
69822;SDS011;57119;52.516;13.508;2022-07-23T06:34:18;9.07;;;3.38;;
69822;SDS011;57119;52.516;13.508;2022-07-23T06:36:44;8.67;;;3.73;;
69822;SDS011;57119;52.516;13.508;2022-07-23T06:39:09;9.67;;;3.60;;
69822;SDS011;57119;52.516;13.508;2022-07-23T06:41:34;10.77;;;4.03;;
69822;SDS011;57119;52.516;13.508;2022-07-23T06:44:00;9.88;;;3.85;;
69822;SDS011;57119;52.516;13.508;2022-07-23T06:46:26;9.33;;;3.60;;
69822;SDS011;57119;52.516;13.508;2022-07-23T06:48:51;10.17;;;3.73;;
69822;SDS011;57119;52.516;13.508;2022-07-23T06:51:16;8.50;;;3.40;;
69822;SDS011;57119;52.516;13.508;2022-07-23T06:53:42;10.30;;;3.60;;
69822;SDS011;57119;52.516;13.508;2022-07-23T06:56:07;8.07;;;3.90;;
69822;SDS011;57119;52.516;13.508;2022-07-23T06:58:32;10.67;;;4.00;;
69822;SDS011;57119;52.516;13.508;2022-07-23T07:00:58;8.17;;;4.00;;
69822;SDS011;57119;52.516;13.508;2022-07-23T07:03:23;11.27;;;3.90;;
69822;SDS011;57119;52.516;13.508;2022-07-23T07:05:48;7.37;;;3.50;;
69822;SDS011;57119;52.516;13.508;2022-07-23T07:08:14;10.43;;;3.33;;
69822;SDS011;57119;52.516;13.508;2022-07-23T07:10:40;7.43;;;3.43;;
69822;SDS011;57119;52.516;13.508;2022-07-23T07:13:05;8.90;;;2.90;;
69822;SDS011;57119;52.516;13.508;2022-07-23T07:15:31;8.43;;;2.47;;
69822;SDS011;57119;52.516;13.508;2022-07-23T07:17:56;9.87;;;2.70;;
69822;SDS011;57119;52.516;13.508;2022-07-23T07:20:21;8.57;;;3.07;;
69822;SDS011;57119;52.516;13.508;2022-07-23T07:22:48;7.65;;;2.75;;
69822;SDS011;57119;52.516;13.508;2022-07-23T07:25:13;7.40;;;3.37;;
69822;SDS011;57119;52.516;13.508;2022-07-23T07:27:39;9.17;;;3.40;;
69822;SDS011;57119;52.516;13.508;2022-07-23T07:30:04;7.93;;;3.50;;
69822;SDS011;57119;52.516;13.508;2022-07-23T07:32:31;7.50;;;3.00;;
69822;SDS011;57119;52.516;13.508;2022-07-23T07:34:57;8.30;;;2.93;;
69822;SDS011;57119;52.516;13.508;2022-07-23T07:37:23;7.00;;;2.92;;
69822;SDS011;57119;52.516;13.508;2022-07-23T07:39:48;8.50;;;2.97;;
69822;SDS011;57119;52.516;13.508;2022-07-23T07:42:13;8.13;;;3.03;;
69822;SDS011;57119;52.516;13.508;2022-07-23T07:44:39;7.55;;;3.45;;
69822;SDS011;57119;52.516;13.508;2022-07-23T07:47:04;8.97;;;3.03;;
69822;SDS011;57119;52.516;13.508;2022-07-23T07:49:30;8.17;;;2.50;;
69822;SDS011;57119;52.516;13.508;2022-07-23T07:51:55;8.67;;;3.07;;
69822;SDS011;57119;52.516;13.508;2022-07-23T07:54:20;9.87;;;3.10;;
69822;SDS011;57119;52.516;13.508;2022-07-23T07:56:46;9.40;;;2.83;;
69822;SDS011;57119;52.516;13.508;2022-07-23T07:59:11;10.53;;;3.37;;
69822;SDS011;57119;52.516;13.508;2022-07-23T08:01:36;7.57;;;3.17;;
69822;SDS011;57119;52.516;13.508;2022-07-23T08:04:02;8.07;;;3.53;;
69822;SDS011;57119;52.516;13.508;2022-07-23T08:06:27;6.47;;;2.83;;
69822;SDS011;57119;52.516;13.508;2022-07-23T08:08:53;8.05;;;3.20;;
69822;SDS011;57119;52.516;13.508;2022-07-23T08:11:18;7.47;;;3.27;;
69822;SDS011;57119;52.516;13.508;2022-07-23T08:13:43;8.93;;;3.40;;
69822;SDS011;57119;52.516;13.508;2022-07-23T08:16:12;6.07;;;3.08;;
69822;SDS011;57119;52.516;13.508;2022-07-23T08:18:37;7.30;;;3.53;;
69822;SDS011;57119;52.516;13.508;2022-07-23T08:21:02;8.90;;;3.63;;
69822;SDS011;57119;52.516;13.508;2022-07-23T08:23:30;7.70;;;3.20;;
69822;SDS011;57119;52.516;13.508;2022-07-23T08:25:55;8.07;;;3.30;;
69822;SDS011;57119;52.516;13.508;2022-07-23T08:28:22;7.20;;;3.65;;
69822;SDS011;57119;52.516;13.508;2022-07-23T08:30:48;7.35;;;3.17;;
69822;SDS011;57119;52.516;13.508;2022-07-23T08:33:14;8.70;;;4.03;;
69822;SDS011;57119;52.516;13.508;2022-07-23T08:35:44;6.65;;;3.35;;
69822;SDS011;57119;52.516;13.508;2022-07-23T08:38:12;6.25;;;2.88;;
69822;SDS011;57119;52.516;13.508;2022-07-23T08:40:42;7.93;;;3.37;;
69822;SDS011;57119;52.516;13.508;2022-07-23T08:43:10;6.78;;;2.58;;
69822;SDS011;57119;52.516;13.508;2022-07-23T08:45:41;6.57;;;2.90;;
69822;SDS011;57119;52.516;13.508;2022-07-23T08:48:11;6.10;;;2.60;;
69822;SDS011;57119;52.516;13.508;2022-07-23T08:50:40;7.75;;;2.58;;
69822;SDS011;57119;52.516;13.508;2022-07-23T08:53:08;5.90;;;2.87;;
69822;SDS011;57119;52.516;13.508;2022-07-23T08:55:33;6.28;;;2.80;;
69822;SDS011;57119;52.516;13.508;2022-07-23T08:57:59;6.78;;;2.80;;
69822;SDS011;57119;52.516;13.508;2022-07-23T09:00:26;6.20;;;2.33;;
69822;SDS011;57119;52.516;13.508;2022-07-23T09:02:52;7.73;;;2.87;;
69822;SDS011;57119;52.516;13.508;2022-07-23T09:05:21;8.48;;;3.17;;
69822;SDS011;57119;52.516;13.508;2022-07-23T09:08:06;6.50;;;2.60;;
69822;SDS011;57119;52.516;13.508;2022-07-23T09:10:43;6.70;;;3.20;;
69822;SDS011;57119;52.516;13.508;2022-07-23T09:24:19;6.07;;;2.83;;
69822;SDS011;57119;52.516;13.508;2022-07-23T09:26:34;7.07;;;3.75;;
69822;SDS011;57119;52.516;13.508;2022-07-23T09:29:15;6.63;;;3.10;;
69822;SDS011;57119;52.516;13.508;2022-07-23T09:31:53;7.05;;;3.13;;
69822;SDS011;57119;52.516;13.508;2022-07-23T09:34:27;6.57;;;3.17;;
69822;SDS011;57119;52.516;13.508;2022-07-23T09:37:35;7.43;;;2.67;;
69822;SDS011;57119;52.516;13.508;2022-07-23T09:39:44;7.43;;;2.70;;
69822;SDS011;57119;52.516;13.508;2022-07-23T09:42:15;8.20;;;3.05;;
69822;SDS011;57119;52.516;13.508;2022-07-23T09:44:41;5.95;;;2.42;;
69822;SDS011;57119;52.516;13.508;2022-07-23T09:47:11;5.97;;;2.65;;
69822;SDS011;57119;52.516;13.508;2022-07-23T09:49:37;5.83;;;3.00;;
69822;SDS011;57119;52.516;13.508;2022-07-23T09:52:02;7.17;;;3.37;;
69822;SDS011;57119;52.516;13.508;2022-07-23T09:54:36;8.30;;;4.30;;
69822;SDS011;57119;52.516;13.508;2022-07-23T09:57:07;8.60;;;3.05;;
69822;SDS011;57119;52.516;13.508;2022-07-23T09:59:36;6.40;;;3.08;;
69822;SDS011;57119;52.516;13.508;2022-07-23T10:02:03;7.27;;;3.83;;
69822;SDS011;57119;52.516;13.508;2022-07-23T10:04:30;8.02;;;3.53;;
69822;SDS011;57119;52.516;13.508;2022-07-23T10:06:58;7.47;;;3.63;;
69822;SDS011;57119;52.516;13.508;2022-07-23T10:09:26;7.95;;;3.35;;
69822;SDS011;57119;52.516;13.508;2022-07-23T10:11:55;6.90;;;4.53;;
69822;SDS011;57119;52.516;13.508;2022-07-23T10:14:34;8.93;;;4.17;;
69822;SDS011;57119;52.516;13.508;2022-07-23T10:17:02;6.65;;;3.72;;
69822;SDS011;57119;52.516;13.508;2022-07-23T10:19:28;6.85;;;3.03;;
69822;SDS011;57119;52.516;13.508;2022-07-23T10:21:56;6.30;;;3.43;;
69822;SDS011;57119;52.516;13.508;2022-07-23T10:27:09;8.93;;;4.60;;
69822;SDS011;57119;52.516;13.508;2022-07-23T10:39:13;7.90;;;4.03;;
69822;SDS011;57119;52.516;13.508;2022-07-23T10:41:30;7.82;;;3.33;;
69822;SDS011;57119;52.516;13.508;2022-07-23T10:44:21;5.82;;;3.08;;
69822;SDS011;57119;52.516;13.508;2022-07-23T10:47:00;6.45;;;3.53;;
69822;SDS011;57119;52.516;13.508;2022-07-23T10:49:27;5.60;;;3.50;;
69822;SDS011;57119;52.516;13.508;2022-07-23T10:54:51;7.80;;;3.50;;
69822;SDS011;57119;52.516;13.508;2022-07-23T10:57:23;7.55;;;3.53;;
69822;SDS011;57119;52.516;13.508;2022-07-23T11:02:31;7.95;;;3.92;;
69822;SDS011;57119;52.516;13.508;2022-07-23T11:05:00;6.83;;;3.30;;
69822;SDS011;57119;52.516;13.508;2022-07-23T11:07:28;6.50;;;3.23;;
69822;SDS011;57119;52.516;13.508;2022-07-23T11:09:54;6.45;;;3.00;;
69822;SDS011;57119;52.516;13.508;2022-07-23T11:17:22;6.05;;;3.20;;
69822;SDS011;57119;52.516;13.508;2022-07-23T11:20:30;6.50;;;2.77;;
69822;SDS011;57119;52.516;13.508;2022-07-23T11:25:08;8.40;;;3.83;;
69822;SDS011;57119;52.516;13.508;2022-07-23T11:30:07;5.47;;;3.00;;
69822;SDS011;57119;52.516;13.508;2022-07-23T11:32:40;5.73;;;3.40;;
69822;SDS011;57119;52.516;13.508;2022-07-23T11:37:46;7.50;;;2.85;;
69822;SDS011;57119;52.516;13.508;2022-07-23T11:40:13;6.10;;;3.00;;
69822;SDS011;57119;52.516;13.508;2022-07-23T11:42:54;6.35;;;3.97;;
69822;SDS011;57119;52.516;13.508;2022-07-23T11:45:34;7.63;;;3.03;;
69822;SDS011;57119;52.516;13.508;2022-07-23T11:48:17;6.20;;;3.00;;
69822;SDS011;57119;52.516;13.508;2022-07-23T11:50:44;9.90;;;3.10;;
69822;SDS011;57119;52.516;13.508;2022-07-23T11:53:11;6.13;;;3.03;;
69822;SDS011;57119;52.516;13.508;2022-07-23T11:55:36;6.95;;;3.78;;
69822;SDS011;57119;52.516;13.508;2022-07-23T11:58:02;8.00;;;2.87;;
69822;SDS011;57119;52.516;13.508;2022-07-23T12:00:28;7.13;;;3.17;;
69822;SDS011;57119;52.516;13.508;2022-07-23T12:02:56;7.25;;;3.40;;
69822;SDS011;57119;52.516;13.508;2022-07-23T12:05:25;6.18;;;4.30;;
69822;SDS011;57119;52.516;13.508;2022-07-23T12:07:53;6.68;;;2.95;;
69822;SDS011;57119;52.516;13.508;2022-07-23T12:10:27;8.55;;;2.78;;
69822;SDS011;57119;52.516;13.508;2022-07-23T12:13:14;8.10;;;3.37;;
69822;SDS011;57119;52.516;13.508;2022-07-23T12:15:46;6.00;;;3.08;;
69822;SDS011;57119;52.516;13.508;2022-07-23T12:18:14;7.40;;;3.28;;
69822;SDS011;57119;52.516;13.508;2022-07-23T12:20:46;12.00;;;3.10;;
69822;SDS011;57119;52.516;13.508;2022-07-23T12:23:22;7.20;;;3.17;;
69822;SDS011;57119;52.516;13.508;2022-07-23T12:25:49;7.47;;;3.60;;
69822;SDS011;57119;52.516;13.508;2022-07-23T12:30:48;8.80;;;4.18;;
69822;SDS011;57119;52.516;13.508;2022-07-23T12:33:20;6.28;;;3.42;;
69822;SDS011;57119;52.516;13.508;2022-07-23T12:35:52;7.30;;;4.35;;
69822;SDS011;57119;52.516;13.508;2022-07-23T12:38:20;7.53;;;4.20;;
69822;SDS011;57119;52.516;13.508;2022-07-23T12:40:48;7.20;;;3.03;;
69822;SDS011;57119;52.516;13.508;2022-07-23T12:48:29;8.52;;;4.80;;
69822;SDS011;57119;52.516;13.508;2022-07-23T12:51:38;5.65;;;3.17;;
69822;SDS011;57119;52.516;13.508;2022-07-23T12:53:49;7.13;;;3.58;;
69822;SDS011;57119;52.516;13.508;2022-07-23T12:56:20;6.60;;;3.33;;
69822;SDS011;57119;52.516;13.508;2022-07-23T12:58:51;7.93;;;3.58;;
69822;SDS011;57119;52.516;13.508;2022-07-23T13:03:53;6.53;;;3.73;;
69822;SDS011;57119;52.516;13.508;2022-07-23T13:06:34;6.03;;;3.33;;
69822;SDS011;57119;52.516;13.508;2022-07-23T13:09:01;8.95;;;3.75;;
69822;SDS011;57119;52.516;13.508;2022-07-23T13:11:28;7.30;;;3.72;;
69822;SDS011;57119;52.516;13.508;2022-07-23T13:13:53;6.93;;;3.50;;
69822;SDS011;57119;52.516;13.508;2022-07-23T13:16:19;10.40;;;3.97;;
69822;SDS011;57119;52.516;13.508;2022-07-23T13:18:44;9.00;;;5.20;;
69822;SDS011;57119;52.516;13.508;2022-07-23T13:21:10;35.13;;;12.52;;
69822;SDS011;57119;52.516;13.508;2022-07-23T13:23:35;9.60;;;5.37;;
69822;SDS011;57119;52.516;13.508;2022-07-23T13:26:01;7.88;;;5.13;;
69822;SDS011;57119;52.516;13.508;2022-07-23T13:28:27;6.72;;;4.25;;
69822;SDS011;57119;52.516;13.508;2022-07-23T13:30:52;6.73;;;4.30;;
69822;SDS011;57119;52.516;13.508;2022-07-23T13:33:18;8.40;;;3.90;;
69822;SDS011;57119;52.516;13.508;2022-07-23T13:35:45;7.07;;;3.45;;
69822;SDS011;57119;52.516;13.508;2022-07-23T13:38:11;7.35;;;4.97;;
69822;SDS011;57119;52.516;13.508;2022-07-23T13:40:37;7.40;;;4.87;;
69822;SDS011;57119;52.516;13.508;2022-07-23T13:43:05;8.82;;;4.30;;
69822;SDS011;57119;52.516;13.508;2022-07-23T13:45:31;6.15;;;3.35;;
69822;SDS011;57119;52.516;13.508;2022-07-23T13:47:57;6.95;;;3.70;;
69822;SDS011;57119;52.516;13.508;2022-07-23T13:50:22;7.67;;;4.50;;
69822;SDS011;57119;52.516;13.508;2022-07-23T13:52:48;47.50;;;12.18;;
69822;SDS011;57119;52.516;13.508;2022-07-23T13:55:14;27.93;;;9.13;;
69822;SDS011;57119;52.516;13.508;2022-07-23T13:57:39;7.70;;;3.90;;
69822;SDS011;57119;52.516;13.508;2022-07-23T14:00:05;6.37;;;3.30;;
69822;SDS011;57119;52.516;13.508;2022-07-23T14:02:34;6.57;;;3.40;;
69822;SDS011;57119;52.516;13.508;2022-07-23T14:05:00;7.07;;;3.03;;
69822;SDS011;57119;52.516;13.508;2022-07-23T14:07:25;6.63;;;2.80;;
69822;SDS011;57119;52.516;13.508;2022-07-23T14:09:51;5.83;;;2.90;;
69822;SDS011;57119;52.516;13.508;2022-07-23T14:12:16;5.93;;;2.90;;
69822;SDS011;57119;52.516;13.508;2022-07-23T14:14:41;6.90;;;3.27;;
69822;SDS011;57119;52.516;13.508;2022-07-23T14:17:08;8.35;;;3.53;;
69822;SDS011;57119;52.516;13.508;2022-07-23T14:19:34;7.43;;;3.20;;
69822;SDS011;57119;52.516;13.508;2022-07-23T14:21:59;6.20;;;3.47;;
69822;SDS011;57119;52.516;13.508;2022-07-23T14:24:24;6.87;;;3.00;;
69822;SDS011;57119;52.516;13.508;2022-07-23T14:26:50;5.70;;;2.85;;
69822;SDS011;57119;52.516;13.508;2022-07-23T14:29:15;6.47;;;2.77;;
69822;SDS011;57119;52.516;13.508;2022-07-23T14:31:40;5.67;;;2.53;;
69822;SDS011;57119;52.516;13.508;2022-07-23T14:34:06;7.10;;;3.63;;
69822;SDS011;57119;52.516;13.508;2022-07-23T14:36:31;6.60;;;3.40;;
69822;SDS011;57119;52.516;13.508;2022-07-23T14:38:57;7.57;;;2.95;;
69822;SDS011;57119;52.516;13.508;2022-07-23T14:41:22;6.43;;;2.80;;
69822;SDS011;57119;52.516;13.508;2022-07-23T14:43:47;7.20;;;3.33;;
69822;SDS011;57119;52.516;13.508;2022-07-23T14:46:13;7.07;;;4.30;;
69822;SDS011;57119;52.516;13.508;2022-07-23T14:48:39;8.43;;;4.63;;
69822;SDS011;57119;52.516;13.508;2022-07-23T14:51:04;5.83;;;2.90;;
69822;SDS011;57119;52.516;13.508;2022-07-23T14:53:30;6.27;;;2.90;;
69822;SDS011;57119;52.516;13.508;2022-07-23T14:55:55;6.17;;;2.73;;
69822;SDS011;57119;52.516;13.508;2022-07-23T14:58:22;7.53;;;3.63;;
69822;SDS011;57119;52.516;13.508;2022-07-23T15:00:48;6.82;;;2.67;;
69822;SDS011;57119;52.516;13.508;2022-07-23T15:03:13;5.87;;;2.60;;
69822;SDS011;57119;52.516;13.508;2022-07-23T15:05:39;5.50;;;2.50;;
69822;SDS011;57119;52.516;13.508;2022-07-23T15:08:04;6.20;;;3.20;;
69822;SDS011;57119;52.516;13.508;2022-07-23T15:10:29;5.13;;;2.88;;
69822;SDS011;57119;52.516;13.508;2022-07-23T15:12:55;5.77;;;3.07;;
69822;SDS011;57119;52.516;13.508;2022-07-23T15:15:20;4.93;;;2.87;;
69822;SDS011;57119;52.516;13.508;2022-07-23T15:17:46;5.20;;;2.63;;
69822;SDS011;57119;52.516;13.508;2022-07-23T15:20:11;6.07;;;2.22;;